Time;durP1;ratioP1;P1;durP2;ratioP2;P2;SDS_P1;SDS_P2;PMS_P1;PMS_P2;Temp;Humidity;BMP_temperature;BMP_pressure;BME280_temperature;BME280_humidity;BME280_pressure;Samples;Min_cycle;Max_cycle;Signal;HPM_P1;HPM_P2
2022/04/06 00:01:43;;;;;;;7.97;5.43;;;9.90;99.90;;;;;;5084291;27;20196;-48
2022/04/06 00:04:10;;;;;;;6.17;4.90;;;9.90;99.90;;;;;;5081495;27;20272;-46
2022/04/06 00:06:38;;;;;;;11.83;5.23;;;9.90;99.90;;;;;;5061949;27;20524;-49
2022/04/06 00:09:05;;;;;;;6.13;4.40;;;9.90;99.90;;;;;;5099397;27;20273;-48
2022/04/06 00:11:33;;;;;;;6.50;4.87;;;9.90;99.90;;;;;;5093378;27;20274;-50
2022/04/06 00:14:01;;;;;;;9.33;5.13;;;9.90;99.90;;;;;;5090013;28;20230;-46
2022/04/06 00:16:28;;;;;;;10.10;5.27;;;9.90;99.90;;;;;;5094774;27;20203;-49
2022/04/06 00:18:55;;;;;;;7.07;5.27;;;9.90;99.90;;;;;;5071925;28;21723;-48
2022/04/06 00:21:23;;;;;;;10.33;5.70;;;9.90;99.90;;;;;;5080941;28;20213;-45
2022/04/06 00:23:50;;;;;;;9.43;6.07;;;9.90;99.90;;;;;;5079838;28;20318;-46
2022/04/06 00:26:17;;;;;;;7.57;5.20;;;9.90;99.90;;;;;;5098750;27;20203;-46
2022/04/06 00:28:44;;;;;;;7.63;5.53;;;9.90;99.90;;;;;;5071000;27;20826;-47
2022/04/06 00:31:14;;;;;;;10.30;5.03;;;9.80;99.90;;;;;;5092550;28;20588;-47
2022/04/06 00:33:40;;;;;;;12.23;5.93;;;9.80;99.90;;;;;;5076581;27;20261;-45
2022/04/06 00:36:07;;;;;;;11.60;5.47;;;9.80;99.90;;;;;;5096761;28;20292;-46
2022/04/06 00:38:34;;;;;;;9.83;5.03;;;9.80;99.90;;;;;;5076569;27;20205;-46
2022/04/06 00:41:01;;;;;;;7.80;5.03;;;9.80;99.90;;;;;;5096380;28;20195;-46
2022/04/06 00:43:28;;;;;;;8.23;5.07;;;9.80;99.90;;;;;;5075813;27;20583;-47
2022/04/06 00:45:55;;;;;;;9.27;5.37;;;9.80;99.90;;;;;;5089426;28;20744;-47
2022/04/06 00:48:23;;;;;;;7.43;5.17;;;9.80;99.90;;;;;;5093974;27;20542;-49
2022/04/06 00:50:50;;;;;;;9.77;5.53;;;9.80;99.90;;;;;;5057485;28;20214;-46
2022/04/06 00:53:17;;;;;;;8.87;5.20;;;9.80;99.90;;;;;;5087951;28;20199;-46
2022/04/06 00:55:44;;;;;;;9.33;5.27;;;9.70;99.90;;;;;;5091560;27;20400;-46
2022/04/06 00:58:11;;;;;;;14.60;6.40;;;9.70;99.90;;;;;;5092753;28;20407;-46
2022/04/06 01:00:37;;;;;;;8.30;6.27;;;9.80;99.90;;;;;;5077429;28;20213;-46
2022/04/06 01:03:05;;;;;;;11.50;6.37;;;9.70;99.90;;;;;;5077207;28;20199;-47
2022/04/06 01:05:33;;;;;;;10.80;6.57;;;9.70;99.90;;;;;;5074115;27;20249;-45
2022/04/06 01:08:01;;;;;;;11.90;6.60;;;9.70;99.90;;;;;;5073675;28;20229;-46
2022/04/06 01:10:29;;;;;;;10.93;6.37;;;9.70;99.90;;;;;;5094399;28;20208;-47
2022/04/06 01:12:56;;;;;;;13.57;6.83;;;9.70;99.90;;;;;;5089393;28;20206;-46
2022/04/06 01:15:24;;;;;;;9.80;6.07;;;9.70;99.90;;;;;;5080058;27;20281;-46
2022/04/06 01:17:51;;;;;;;12.33;6.13;;;9.70;99.90;;;;;;5088919;27;20242;-46
2022/04/06 01:20:18;;;;;;;10.87;6.60;;;9.70;99.90;;;;;;5090284;28;20204;-47
2022/04/06 01:22:46;;;;;;;14.80;6.67;;;9.70;99.90;;;;;;5060362;28;20326;-47
2022/04/06 01:25:13;;;;;;;9.30;6.17;;;9.70;99.90;;;;;;5089220;28;20233;-46
2022/04/06 01:27:40;;;;;;;11.40;7.03;;;9.70;99.90;;;;;;5075592;27;20901;-48
2022/04/06 01:30:08;;;;;;;13.67;6.53;;;9.70;99.90;;;;;;5093046;28;20209;-46
2022/04/06 01:32:35;;;;;;;13.13;7.70;;;9.70;99.90;;;;;;5091914;27;20210;-47
2022/04/06 01:35:03;;;;;;;13.80;6.87;;;9.70;99.90;;;;;;5076258;27;20293;-46
2022/04/06 01:37:31;;;;;;;10.27;6.30;;;9.60;99.90;;;;;;5074941;28;20264;-47
2022/04/06 01:39:59;;;;;;;13.17;7.23;;;9.60;99.90;;;;;;5083357;27;20196;-46
2022/04/06 01:42:26;;;;;;;10.77;6.80;;;9.60;99.90;;;;;;5094343;27;20210;-47
2022/04/06 01:44:53;;;;;;;11.67;7.40;;;9.60;99.90;;;;;;5074623;27;20518;-47
2022/04/06 01:47:21;;;;;;;17.93;8.43;;;9.60;99.90;;;;;;5087701;28;20531;-46
2022/04/06 01:52:34;;;;;;;14.13;8.60;;;9.70;99.90;;;;;;5058904;28;20207;-47
2022/04/06 01:55:06;;;;;;;12.83;7.13;;;9.60;99.90;;;;;;5078110;27;20725;-47
2022/04/06 01:57:34;;;;;;;17.60;7.63;;;9.60;99.90;;;;;;5088693;28;20267;-46
2022/04/06 02:00:01;;;;;;;17.43;7.73;;;9.60;99.90;;;;;;5073951;28;20501;-47
2022/04/06 02:02:31;;;;;;;19.70;9.37;;;9.60;99.90;;;;;;5077907;28;20195;-47
2022/04/06 02:04:59;;;;;;;19.97;9.00;;;9.50;99.90;;;;;;5089387;28;20260;-47
2022/04/06 02:07:26;;;;;;;20.60;8.70;;;9.60;99.90;;;;;;5079193;28;20248;-47
2022/04/06 02:09:54;;;;;;;20.50;9.10;;;9.60;99.90;;;;;;5074925;28;20207;-47
2022/04/06 02:12:22;;;;;;;16.37;9.73;;;9.60;99.90;;;;;;5091062;27;20405;-47
2022/04/06 02:14:49;;;;;;;14.47;8.33;;;9.70;99.90;;;;;;5093945;28;20339;-46
2022/04/06 02:17:17;;;;;;;21.93;9.70;;;9.60;99.90;;;;;;5079154;28;20242;-46
2022/04/06 02:19:44;;;;;;;16.20;9.67;;;9.70;99.90;;;;;;5090405;28;20196;-46
2022/04/06 02:22:11;;;;;;;13.37;9.03;;;9.60;99.90;;;;;;5080806;27;20695;-47
2022/04/06 02:24:38;;;;;;;23.73;9.53;;;9.70;99.90;;;;;;5062703;28;20215;-47
2022/04/06 02:27:07;;;;;;;17.13;9.93;;;9.60;99.90;;;;;;5098740;27;20203;-46
2022/04/06 02:29:37;;;;;;;15.63;9.33;;;9.60;99.90;;;;;;5091321;28;20233;-47
2022/04/06 02:32:05;;;;;;;19.80;10.03;;;9.60;99.90;;;;;;5074451;27;21696;-51
2022/04/06 02:34:32;;;;;;;22.60;10.70;;;9.60;99.90;;;;;;5070384;27;20238;-47
2022/04/06 02:36:58;;;;;;;15.67;9.93;;;9.60;99.90;;;;;;5070694;28;20329;-46
2022/04/06 02:39:25;;;;;;;19.20;10.87;;;9.70;99.90;;;;;;5072399;27;20214;-46
2022/04/06 02:41:53;;;;;;;21.40;11.73;;;9.70;99.90;;;;;;5077309;27;20207;-47
2022/04/06 02:44:20;;;;;;;19.77;11.27;;;9.70;99.90;;;;;;5062275;28;20228;-47
2022/04/06 02:46:49;;;;;;;22.90;11.80;;;9.70;99.90;;;;;;5094188;28;20223;-47
2022/04/06 02:49:16;;;;;;;20.20;12.10;;;9.70;99.90;;;;;;5071850;28;20330;-47
2022/04/06 02:51:43;;;;;;;24.17;11.70;;;9.70;99.90;;;;;;5094623;28;20215;-47
2022/04/06 02:54:10;;;;;;;21.60;11.50;;;9.70;99.90;;;;;;5072112;28;20751;-47
2022/04/06 02:56:36;;;;;;;22.23;12.60;;;9.70;99.90;;;;;;5085743;27;20199;-46
2022/04/06 02:59:03;;;;;;;21.23;12.67;;;9.80;99.90;;;;;;5078410;28;20204;-46
2022/04/06 03:01:30;;;;;;;20.90;11.63;;;9.80;99.90;;;;;;5093974;28;20277;-47
2022/04/06 03:03:59;;;;;;;23.93;12.37;;;9.80;99.90;;;;;;5073439;27;20231;-47
2022/04/06 03:06:26;;;;;;;24.90;12.87;;;9.80;99.90;;;;;;5088588;28;20204;-47
2022/04/06 03:08:53;;;;;;;25.53;14.50;;;9.80;99.90;;;;;;5070925;27;20434;-47
2022/04/06 03:11:21;;;;;;;24.87;13.10;;;9.80;99.90;;;;;;5075397;28;20207;-46
2022/04/06 03:13:49;;;;;;;21.13;12.60;;;9.80;99.90;;;;;;5074873;28;20589;-47
2022/04/06 03:16:16;;;;;;;25.37;13.77;;;9.80;99.90;;;;;;5090339;28;20226;-46
2022/04/06 03:18:43;;;;;;;26.87;13.43;;;9.80;99.90;;;;;;5091595;28;20562;-47
2022/04/06 03:21:11;;;;;;;23.77;13.80;;;9.80;99.90;;;;;;5078385;28;20703;-47
2022/04/06 03:23:38;;;;;;;24.10;13.53;;;9.80;99.90;;;;;;5092138;28;20211;-47
2022/04/06 03:26:05;;;;;;;28.53;13.70;;;9.80;99.90;;;;;;5075647;28;20207;-48
2022/04/06 03:28:32;;;;;;;22.97;13.40;;;9.80;99.90;;;;;;5072153;28;20238;-45
2022/04/06 03:30:59;;;;;;;23.20;12.83;;;9.80;99.90;;;;;;5090989;28;20356;-48
2022/04/06 03:33:26;;;;;;;23.40;12.60;;;9.80;99.90;;;;;;5074922;28;20238;-49
2022/04/06 03:35:52;;;;;;;25.93;13.33;;;9.80;99.90;;;;;;5084168;28;20795;-49
2022/04/06 03:38:21;;;;;;;26.57;13.80;;;9.80;99.90;;;;;;5096162;28;20199;-45
2022/04/06 03:40:48;;;;;;;24.23;12.43;;;9.70;99.90;;;;;;5068879;28;20283;-46
2022/04/06 03:43:14;;;;;;;27.43;13.50;;;9.70;99.90;;;;;;5085477;28;20211;-46
2022/04/06 03:45:42;;;;;;;24.97;11.63;;;9.70;99.90;;;;;;5080591;28;20210;-46
2022/04/06 03:48:09;;;;;;;21.97;12.47;;;9.70;99.90;;;;;;5081794;28;20240;-47
2022/04/06 03:50:36;;;;;;;31.50;12.53;;;9.70;99.90;;;;;;5087342;28;20221;-45
2022/04/06 03:53:03;;;;;;;16.27;10.90;;;9.70;99.90;;;;;;5092906;28;20437;-49
2022/04/06 03:55:31;;;;;;;21.63;12.27;;;9.70;99.90;;;;;;5059814;28;21475;-46
2022/04/06 03:57:59;;;;;;;21.53;11.83;;;9.70;99.90;;;;;;5076495;28;20280;-45
2022/04/06 04:00:26;;;;;;;23.30;11.63;;;9.70;99.90;;;;;;5053010;28;20597;-47
2022/04/06 04:02:52;;;;;;;22.10;10.87;;;9.70;99.90;;;;;;5079144;28;20213;-48
2022/04/06 04:05:20;;;;;;;27.20;12.23;;;9.70;99.90;;;;;;5086100;28;20812;-46
2022/04/06 04:07:47;;;;;;;24.90;10.87;;;9.70;99.90;;;;;;5087418;28;20994;-47
2022/04/06 04:10:19;;;;;;;21.73;10.73;;;9.70;99.90;;;;;;5085497;28;20861;-46
2022/04/06 04:12:47;;;;;;;18.90;9.97;;;9.70;99.90;;;;;;5067554;28;20310;-47
2022/04/06 04:15:14;;;;;;;20.30;10.17;;;9.70;99.90;;;;;;5074020;28;20228;-46
2022/04/06 04:17:41;;;;;;;23.20;9.80;;;9.70;99.90;;;;;;5092627;28;20209;-47
2022/04/06 04:20:09;;;;;;;18.63;10.03;;;9.70;99.90;;;;;;5083947;28;20196;-46
2022/04/06 04:22:37;;;;;;;22.20;9.93;;;9.60;99.90;;;;;;5088992;28;20990;-47
2022/04/06 04:25:04;;;;;;;15.73;9.93;;;9.70;99.90;;;;;;5082041;27;20250;-47
2022/04/06 04:27:31;;;;;;;14.93;8.37;;;9.60;99.90;;;;;;5070722;28;20211;-47
2022/04/06 04:29:59;;;;;;;18.07;8.50;;;9.60;99.90;;;;;;5086782;27;20433;-45
2022/04/06 04:32:26;;;;;;;20.47;8.30;;;9.60;99.90;;;;;;5085023;28;20280;-47
2022/04/06 04:34:53;;;;;;;18.13;8.13;;;9.60;99.90;;;;;;5085562;27;20307;-46
2022/04/06 04:37:20;;;;;;;16.90;8.50;;;9.50;99.90;;;;;;5091542;28;20227;-46
2022/04/06 04:39:48;;;;;;;15.73;7.23;;;9.50;99.90;;;;;;5091411;28;20429;-47
2022/04/06 04:42:15;;;;;;;15.07;8.00;;;9.50;99.90;;;;;;5090046;28;20204;-47
2022/04/06 04:44:42;;;;;;;19.70;7.77;;;9.50;99.90;;;;;;5070387;27;20561;-48
2022/04/06 04:47:10;;;;;;;15.77;7.63;;;9.50;99.90;;;;;;5091270;27;20192;-47
2022/04/06 04:49:38;;;;;;;24.20;7.87;;;9.50;99.90;;;;;;5098290;28;20223;-47
2022/04/06 04:52:05;;;;;;;18.97;7.90;;;9.50;99.90;;;;;;5065993;27;20306;-45
2022/04/06 04:54:32;;;;;;;16.00;7.40;;;9.50;99.90;;;;;;5092019;28;20570;-44
2022/04/06 04:56:59;;;;;;;20.00;7.50;;;9.50;99.90;;;;;;5078512;27;20238;-45
2022/04/06 04:59:26;;;;;;;14.53;7.07;;;9.50;99.90;;;;;;5075418;27;20279;-44
2022/04/06 05:01:53;;;;;;;16.43;7.27;;;9.40;99.90;;;;;;5083786;28;20203;-47
2022/04/06 05:04:22;;;;;;;16.50;7.47;;;9.50;99.90;;;;;;5081769;27;20227;-46
2022/04/06 05:06:48;;;;;;;14.27;6.40;;;9.50;99.90;;;;;;5085468;27;20203;-50
2022/04/06 05:09:15;;;;;;;12.23;6.90;;;9.50;99.90;;;;;;5081700;27;20250;-47
2022/04/06 05:11:42;;;;;;;12.83;6.87;;;9.50;99.90;;;;;;5077294;27;20275;-48
2022/04/06 05:14:09;;;;;;;19.80;7.67;;;9.40;99.90;;;;;;5074513;28;21887;-46
2022/04/06 05:16:36;;;;;;;17.87;7.53;;;9.40;99.90;;;;;;5080352;27;20283;-49
2022/04/06 05:19:03;;;;;;;16.63;7.50;;;9.50;99.90;;;;;;5073047;27;20199;-46
2022/04/06 05:21:31;;;;;;;17.77;7.13;;;9.50;99.90;;;;;;5092919;28;20204;-47
2022/04/06 05:23:59;;;;;;;17.23;7.30;;;9.50;99.90;;;;;;5068479;27;23347;-50
2022/04/06 05:26:26;;;;;;;19.67;8.90;;;9.50;99.90;;;;;;5094122;28;20199;-46
2022/04/06 05:28:53;;;;;;;21.33;7.73;;;9.50;99.90;;;;;;5068565;27;20260;-50
2022/04/06 05:31:21;;;;;;;18.60;7.53;;;9.50;99.90;;;;;;5083532;27;20286;-46
2022/04/06 05:33:48;;;;;;;15.07;7.80;;;9.50;99.90;;;;;;5082575;27;20293;-45
2022/04/06 05:36:15;;;;;;;15.67;7.20;;;9.50;99.90;;;;;;5075446;28;20625;-46
2022/04/06 05:38:43;;;;;;;16.00;7.23;;;9.50;99.90;;;;;;5085251;27;20204;-45
2022/04/06 05:41:10;;;;;;;18.97;8.53;;;9.60;99.90;;;;;;5091605;28;20230;-46
2022/04/06 05:43:37;;;;;;;18.67;8.83;;;9.60;99.90;;;;;;5074291;27;20224;-46
2022/04/06 05:46:03;;;;;;;18.70;9.23;;;9.60;99.90;;;;;;5077890;27;20446;-46
2022/04/06 05:48:30;;;;;;;16.20;8.70;;;9.70;99.90;;;;;;5076727;28;20377;-46
2022/04/06 05:50:57;;;;;;;20.70;9.03;;;9.60;99.90;;;;;;5077372;27;20303;-46
2022/04/06 05:53:24;;;;;;;18.57;9.20;;;9.60;99.90;;;;;;5092382;28;20196;-46
2022/04/06 05:55:52;;;;;;;17.90;9.33;;;9.60;99.90;;;;;;5056723;28;21070;-46
2022/04/06 05:58:19;;;;;;;21.10;9.17;;;9.70;99.90;;;;;;5091211;27;20203;-46
2022/04/06 06:00:46;;;;;;;18.80;9.53;;;9.70;99.90;;;;;;5072380;28;20306;-46
2022/04/06 06:03:13;;;;;;;16.13;9.53;;;9.70;99.90;;;;;;5079547;27;20207;-47
2022/04/06 06:05:40;;;;;;;17.57;9.40;;;9.70;99.90;;;;;;5085813;28;20200;-46
2022/04/06 06:08:07;;;;;;;19.63;9.97;;;9.70;99.90;;;;;;5082687;27;20204;-47
2022/04/06 06:10:34;;;;;;;21.67;9.93;;;9.70;99.90;;;;;;5077295;28;20215;-46
2022/04/06 06:13:02;;;;;;;21.83;10.50;;;9.80;99.90;;;;;;5090219;27;20238;-47
2022/04/06 06:15:29;;;;;;;17.27;11.27;;;9.80;99.90;;;;;;5094508;27;20283;-46
2022/04/06 06:17:56;;;;;;;17.23;10.13;;;9.80;99.90;;;;;;5062285;28;21320;-46
2022/04/06 06:20:23;;;;;;;18.40;10.00;;;9.80;99.90;;;;;;5066633;27;20318;-46
2022/04/06 06:22:50;;;;;;;20.90;10.67;;;9.80;99.90;;;;;;5088173;27;20362;-46
2022/04/06 06:25:17;;;;;;;20.07;10.70;;;9.80;99.90;;;;;;5071666;28;20220;-46
2022/04/06 06:27:44;;;;;;;22.13;10.13;;;9.90;99.90;;;;;;5082097;27;20203;-46
2022/04/06 06:30:14;;;;;;;20.13;10.40;;;9.90;99.90;;;;;;5091993;27;20228;-46
2022/04/06 06:32:42;;;;;;;20.93;10.27;;;9.90;99.90;;;;;;5055447;27;20222;-46
2022/04/06 06:35:09;;;;;;;19.90;11.67;;;9.90;99.90;;;;;;5085699;27;20222;-46
2022/04/06 06:37:37;;;;;;;17.27;10.40;;;9.90;99.90;;;;;;5091238;28;20238;-47
2022/04/06 06:40:04;;;;;;;17.50;9.87;;;9.90;99.90;;;;;;5068563;27;20309;-47
2022/04/06 06:42:31;;;;;;;16.13;9.80;;;9.90;99.90;;;;;;5075487;27;20512;-46
2022/04/06 06:44:58;;;;;;;19.60;11.07;;;9.90;99.90;;;;;;5085978;28;20226;-46
2022/04/06 06:47:26;;;;;;;17.23;9.57;;;9.90;99.90;;;;;;5072213;28;20219;-47
2022/04/06 06:49:53;;;;;;;19.90;9.57;;;9.90;99.90;;;;;;5072329;28;20294;-47
2022/04/06 06:52:20;;;;;;;19.97;10.17;;;9.90;99.90;;;;;;5078314;28;20450;-46
2022/04/06 06:54:47;;;;;;;22.13;9.93;;;9.90;99.90;;;;;;5091753;27;20215;-47
2022/04/06 06:57:14;;;;;;;19.23;9.57;;;9.90;99.90;;;;;;5086636;28;20203;-46
2022/04/06 06:59:41;;;;;;;18.53;9.20;;;9.90;99.90;;;;;;5092354;28;20262;-47
2022/04/06 07:02:08;;;;;;;16.40;9.23;;;9.90;99.90;;;;;;5069838;28;20208;-45
2022/04/06 07:04:37;;;;;;;14.87;9.20;;;9.90;99.90;;;;;;5084293;28;20294;-46
2022/04/06 07:07:04;;;;;;;16.20;9.57;;;9.90;99.90;;;;;;5078436;28;20974;-46
2022/04/06 07:09:31;;;;;;;16.97;9.30;;;9.90;99.90;;;;;;5093177;28;20731;-46
2022/04/06 07:11:58;;;;;;;18.87;8.43;;;9.90;99.90;;;;;;5073440;28;20207;-47
2022/04/06 07:14:26;;;;;;;15.77;8.73;;;9.90;99.90;;;;;;5082708;28;20228;-47
2022/04/06 07:16:54;;;;;;;12.33;8.87;;;9.90;99.90;;;;;;5081180;28;20270;-47
2022/04/06 07:19:21;;;;;;;20.60;8.80;;;9.90;99.90;;;;;;5057536;28;20304;-45
2022/04/06 07:21:50;;;;;;;19.03;8.53;;;9.90;99.90;;;;;;5089103;28;20202;-46
2022/04/06 07:24:17;;;;;;;15.70;9.10;;;9.90;99.90;;;;;;5089957;28;20243;-46
2022/04/06 07:26:44;;;;;;;15.07;7.73;;;9.90;99.90;;;;;;5070319;28;20238;-45
2022/04/06 07:29:15;;;;;;;15.17;7.77;;;10.00;99.90;;;;;;5069796;28;20279;-46
2022/04/06 07:31:42;;;;;;;13.30;7.27;;;10.00;99.90;;;;;;5081772;28;20224;-45
2022/04/06 07:34:09;;;;;;;18.43;7.20;;;10.10;99.90;;;;;;5063653;28;20766;-46
2022/04/06 07:36:37;;;;;;;20.77;8.30;;;10.00;99.90;;;;;;5080762;28;20222;-45
2022/04/06 07:39:06;;;;;;;12.77;7.13;;;10.00;99.90;;;;;;5085909;28;20270;-45
2022/04/06 07:41:34;;;;;;;13.10;7.40;;;10.00;99.90;;;;;;5093471;28;20267;-46
2022/04/06 07:44:01;;;;;;;15.70;6.50;;;10.00;99.90;;;;;;5080109;28;20220;-46
2022/04/06 07:46:28;;;;;;;15.87;6.97;;;10.00;99.90;;;;;;5075064;28;20208;-47
2022/04/06 07:48:55;;;;;;;12.77;6.37;;;10.00;99.90;;;;;;5066610;28;20533;-47
2022/04/06 07:51:22;;;;;;;10.27;6.03;;;9.90;99.90;;;;;;5076674;28;20228;-46
2022/04/06 07:53:49;;;;;;;11.10;5.50;;;9.90;99.90;;;;;;5080668;28;20227;-46
2022/04/06 07:56:17;;;;;;;11.83;6.40;;;10.00;99.90;;;;;;5091676;28;20597;-46
2022/04/06 07:58:44;;;;;;;17.00;6.13;;;10.00;99.90;;;;;;5086916;27;20302;-47
2022/04/06 08:01:11;;;;;;;11.80;5.23;;;9.90;99.90;;;;;;5084235;27;20195;-46
2022/04/06 08:03:38;;;;;;;11.13;5.50;;;9.90;99.90;;;;;;5094985;28;20303;-46
2022/04/06 08:06:05;;;;;;;7.70;5.03;;;10.00;99.90;;;;;;5060436;28;20204;-49
2022/04/06 08:08:33;;;;;;;11.53;5.50;;;9.90;99.90;;;;;;5069686;27;20215;-45
2022/04/06 08:11:00;;;;;;;12.23;5.30;;;9.90;99.90;;;;;;5085278;27;20227;-47
2022/04/06 08:13:28;;;;;;;13.80;4.87;;;10.00;99.90;;;;;;5077320;27;20208;-49
2022/04/06 08:15:55;;;;;;;8.33;4.43;;;9.90;99.90;;;;;;5081850;28;20218;-49
2022/04/06 08:18:22;;;;;;;6.80;4.30;;;10.00;99.90;;;;;;5090107;27;20461;-47
2022/04/06 08:20:49;;;;;;;6.73;3.83;;;9.90;99.90;;;;;;5071027;28;20510;-50
2022/04/06 08:23:19;;;;;;;9.33;4.03;;;9.90;99.90;;;;;;5079222;28;20211;-49
2022/04/06 08:25:46;;;;;;;7.03;3.93;;;9.90;99.90;;;;;;5094728;27;20203;-50
2022/04/06 08:28:12;;;;;;;7.93;3.87;;;9.90;99.90;;;;;;5082897;27;20335;-46
2022/04/06 08:33:36;;;;;;;10.30;4.00;;;9.80;99.90;;;;;;5042223;27;21695;-44
2022/04/06 08:36:06;;;;;;;10.07;3.80;;;9.80;99.90;;;;;;4977722;28;20209;-46
2022/04/06 08:38:33;;;;;;;11.43;4.60;;;9.80;99.90;;;;;;5001675;28;20211;-44
2022/04/06 08:41:00;;;;;;;7.83;3.30;;;9.70;99.90;;;;;;4988850;28;20202;-46
2022/04/06 08:43:27;;;;;;;7.07;3.27;;;9.80;99.90;;;;;;5001578;28;20202;-46
2022/04/06 08:45:56;;;;;;;8.00;3.47;;;9.80;99.90;;;;;;4997551;28;20199;-46
2022/04/06 08:48:28;;;;;;;9.73;3.33;;;9.80;99.90;;;;;;5009114;28;20213;-50
2022/04/06 08:50:59;;;;;;;7.10;3.30;;;9.80;99.90;;;;;;4991415;28;20214;-48
2022/04/06 08:53:27;;;;;;;7.97;3.10;;;9.80;99.90;;;;;;4981417;28;20663;-45
2022/04/06 08:55:54;;;;;;;9.83;3.70;;;9.80;99.90;;;;;;5012645;28;20199;-47
2022/04/06 08:58:20;;;;;;;5.87;3.57;;;9.90;99.90;;;;;;4990864;28;20217;-44
2022/04/06 09:00:47;;;;;;;14.00;4.43;;;9.80;99.90;;;;;;4992362;28;20250;-50
2022/04/06 09:03:16;;;;;;;5.57;3.40;;;9.80;99.90;;;;;;5007475;28;20240;-44
2022/04/06 09:05:43;;;;;;;6.47;4.00;;;9.80;99.90;;;;;;4998881;28;20807;-49
2022/04/06 09:08:12;;;;;;;7.30;4.40;;;9.80;99.90;;;;;;4986114;28;20249;-47
2022/04/06 09:10:41;;;;;;;7.07;3.80;;;9.80;99.90;;;;;;4996525;28;20232;-49
2022/04/06 09:13:12;;;;;;;8.60;3.77;;;9.80;99.90;;;;;;4994725;28;20258;-50
2022/04/06 09:15:39;;;;;;;6.87;3.27;;;9.80;99.90;;;;;;4999928;27;20450;-47
2022/04/06 09:18:07;;;;;;;8.27;3.70;;;9.80;99.90;;;;;;4990436;28;20588;-47
2022/04/06 09:20:33;;;;;;;8.13;3.90;;;9.70;99.90;;;;;;4989987;28;20555;-49
2022/04/06 09:23:02;;;;;;;7.00;3.87;;;9.80;99.90;;;;;;4993860;28;20302;-47
2022/04/06 09:25:35;;;;;;;9.73;3.90;;;9.80;99.90;;;;;;4979386;28;20231;-49
2022/04/06 09:28:09;;;;;;;9.27;4.20;;;9.80;99.90;;;;;;5006962;28;20269;-47
2022/04/06 09:30:40;;;;;;;9.83;4.30;;;9.80;99.90;;;;;;5002778;28;20215;-46
2022/04/06 09:33:14;;;;;;;8.23;4.17;;;9.80;99.90;;;;;;4994457;28;20272;-46
2022/04/06 09:35:41;;;;;;;8.30;4.00;;;9.80;99.90;;;;;;4981128;28;22331;-46
2022/04/06 09:38:13;;;;;;;8.07;4.20;;;9.80;99.90;;;;;;4992341;28;20221;-45
2022/04/06 09:40:41;;;;;;;9.83;4.23;;;9.70;99.90;;;;;;4960933;28;20207;-45
2022/04/06 09:43:09;;;;;;;7.43;4.13;;;9.70;99.90;;;;;;4996414;28;20400;-46
2022/04/06 09:48:20;;;;;;;11.47;4.70;;;9.80;99.90;;;;;;4984346;28;20241;-46
2022/04/06 09:50:57;;;;;;;9.33;4.87;;;9.80;99.90;;;;;;5003275;28;20234;-46
2022/04/06 09:53:27;;;;;;;8.17;4.70;;;9.80;99.90;;;;;;4967648;28;20343;-46
2022/04/06 09:55:57;;;;;;;10.00;4.97;;;9.90;99.90;;;;;;4980830;28;20207;-44
2022/04/06 09:58:25;;;;;;;7.07;4.53;;;9.90;99.90;;;;;;4994363;28;20241;-50
2022/04/06 10:00:53;;;;;;;12.60;4.83;;;9.90;99.90;;;;;;4991969;28;20718;-45
2022/04/06 10:03:22;;;;;;;8.33;4.90;;;9.90;99.90;;;;;;4981853;28;20444;-49
2022/04/06 10:05:50;;;;;;;6.87;5.00;;;9.90;99.90;;;;;;4981119;28;20207;-44
2022/04/06 10:08:19;;;;;;;5.33;4.43;;;10.00;99.90;;;;;;4988825;28;20246;-49
2022/04/06 10:10:47;;;;;;;9.10;5.03;;;10.00;99.90;;;;;;4961543;28;20234;-45
2022/04/06 10:13:16;;;;;;;6.27;4.83;;;10.00;99.90;;;;;;4982020;28;20336;-47
2022/04/06 10:15:44;;;;;;;12.30;5.30;;;10.00;99.90;;;;;;4991734;28;20206;-46
2022/04/06 10:18:11;;;;;;;11.33;6.13;;;10.00;99.90;;;;;;4978123;28;20221;-46
2022/04/06 10:20:43;;;;;;;14.80;5.70;;;10.10;99.90;;;;;;4992933;28;20697;-45
2022/04/06 10:23:18;;;;;;;12.03;5.83;;;10.10;99.90;;;;;;4989972;28;20207;-45
2022/04/06 10:25:57;;;;;;;8.90;5.33;;;10.10;99.90;;;;;;4978875;28;20202;-45
2022/04/06 10:28:25;;;;;;;10.03;6.00;;;10.10;99.90;;;;;;4976922;28;20218;-48
2022/04/06 10:31:15;;;;;;;8.13;5.20;;;10.10;99.90;;;;;;4998378;28;20309;-46
2022/04/06 10:33:42;;;;;;;9.20;5.63;;;10.10;99.90;;;;;;4969028;28;20230;-45
2022/04/06 10:36:23;;;;;;;12.23;5.77;;;10.10;99.90;;;;;;4996189;28;20230;-46
2022/04/06 10:39:12;;;;;;;13.10;5.73;;;10.10;99.90;;;;;;4979431;28;20387;-45
2022/04/06 10:42:00;;;;;;;6.93;5.60;;;10.10;99.90;;;;;;4965137;28;20207;-46
2022/04/06 10:44:41;;;;;;;6.60;5.33;;;10.10;99.90;;;;;;4965314;28;20641;-45
2022/04/06 10:47:09;;;;;;;11.43;5.63;;;10.10;99.90;;;;;;4993460;28;20206;-46
2022/04/06 10:49:37;;;;;;;9.37;5.87;;;10.20;99.90;;;;;;4974552;28;20621;-46
2022/04/06 10:52:26;;;;;;;14.40;5.20;;;10.20;99.90;;;;;;4975748;28;20209;-46
2022/04/06 10:54:53;;;;;;;8.43;5.73;;;10.30;99.90;;;;;;4985522;28;20241;-46
2022/04/06 10:57:21;;;;;;;18.33;5.90;;;10.20;99.90;;;;;;4963600;28;20290;-45
2022/04/06 11:00:15;;;;;;;6.70;5.00;;;10.20;99.90;;;;;;4984503;28;20577;-45
2022/04/06 11:02:49;;;;;;;7.80;4.87;;;10.20;99.90;;;;;;4987391;28;20233;-48
2022/04/06 11:05:45;;;;;;;11.97;5.47;;;10.20;99.90;;;;;;4974482;28;20230;-46
2022/04/06 11:11:48;;;;;;;7.23;5.13;;;10.30;99.90;;;;;;4981449;28;20252;-46
2022/04/06 11:14:28;;;;;;;9.00;4.30;;;10.30;99.90;;;;;;5021465;28;20274;-46
2022/04/06 11:16:57;;;;;;;7.93;4.40;;;10.30;99.90;;;;;;5000399;28;20207;-45
2022/04/06 11:19:25;;;;;;;8.73;4.40;;;10.30;99.90;;;;;;4974114;28;20238;-44
2022/04/06 11:21:53;;;;;;;8.33;4.10;;;10.20;99.90;;;;;;4987589;28;20242;-47
2022/04/06 11:24:23;;;;;;;10.17;4.13;;;10.30;99.90;;;;;;4988345;28;20290;-50
2022/04/06 11:26:51;;;;;;;10.00;4.30;;;10.20;99.90;;;;;;4968561;28;20207;-46
2022/04/06 11:29:18;;;;;;;9.23;4.27;;;10.30;99.90;;;;;;4972693;28;20286;-50
2022/04/06 11:31:57;;;;;;;6.87;4.20;;;10.30;99.90;;;;;;4979259;28;20609;-47
2022/04/06 11:34:31;;;;;;;9.03;4.70;;;10.30;99.90;;;;;;4969853;28;20785;-45
2022/04/06 11:36:58;;;;;;;8.73;3.80;;;10.30;99.90;;;;;;4974997;28;20255;-45
2022/04/06 11:39:25;;;;;;;5.83;4.30;;;10.40;99.90;;;;;;4976919;28;20389;-49
2022/04/06 11:41:52;;;;;;;11.00;4.50;;;10.40;99.90;;;;;;4996556;28;20270;-47
2022/04/06 11:44:20;;;;;;;8.80;4.10;;;10.40;99.90;;;;;;4957538;28;20223;-50
2022/04/06 11:46:47;;;;;;;8.07;3.80;;;10.40;99.90;;;;;;4990984;28;20215;-48
2022/04/06 11:49:20;;;;;;;6.82;3.95;;;10.40;99.90;;;;;;4979088;28;20215;-49
2022/04/06 11:51:47;;;;;;;5.23;3.57;;;10.40;99.90;;;;;;4979077;28;20229;-48
2022/04/06 11:54:16;;;;;;;6.63;3.60;;;10.40;99.90;;;;;;4975259;28;20264;-50
2022/04/06 11:56:42;;;;;;;6.03;3.93;;;10.40;99.90;;;;;;4990902;28;20203;-47
2022/04/06 11:59:10;;;;;;;7.07;4.07;;;10.40;99.90;;;;;;4977660;28;20244;-50
2022/04/06 12:01:45;;;;;;;11.30;4.07;;;10.50;99.90;;;;;;4957823;28;20202;-48
2022/04/06 12:04:21;;;;;;;8.60;3.87;;;10.40;99.90;;;;;;4973981;28;20222;-50
2022/04/06 12:06:48;;;;;;;5.55;3.55;;;10.50;99.90;;;;;;4987261;28;20245;-51
2022/04/06 12:09:15;;;;;;;7.20;3.40;;;10.40;99.90;;;;;;4974509;28;20214;-48
2022/04/06 12:11:42;;;;;;;7.18;4.00;;;10.40;99.90;;;;;;4989509;28;20238;-47
2022/04/06 12:14:11;;;;;;;9.43;4.27;;;10.40;99.90;;;;;;4982512;28;20229;-47
2022/04/06 12:16:39;;;;;;;6.23;3.80;;;10.50;99.90;;;;;;4956741;28;20237;-47
2022/04/06 12:19:12;;;;;;;8.77;3.90;;;10.50;99.90;;;;;;4990820;28;20213;-47
2022/04/06 12:21:43;;;;;;;5.80;3.20;;;10.40;99.90;;;;;;4986980;28;20219;-46
2022/04/06 12:24:11;;;;;;;6.37;4.53;;;10.50;99.90;;;;;;4964539;28;20232;-47
2022/04/06 12:26:45;;;;;;;5.88;3.50;;;10.40;99.90;;;;;;4992848;28;20210;-47
2022/04/06 12:29:16;;;;;;;3.88;3.17;;;10.50;99.90;;;;;;4983651;28;20234;-48
2022/04/06 12:31:45;;;;;;;5.77;4.00;;;10.60;99.90;;;;;;4977740;28;20214;-47
2022/04/06 12:34:30;;;;;;;4.77;3.87;;;10.50;99.90;;;;;;4989687;28;20231;-47
2022/04/06 12:37:00;;;;;;;6.87;4.03;;;10.40;99.90;;;;;;4977650;28;20352;-47
2022/04/06 12:39:27;;;;;;;9.70;4.77;;;10.40;99.90;;;;;;4964544;28;20211;-47
2022/04/06 12:41:58;;;;;;;7.90;4.23;;;10.40;99.90;;;;;;4993531;28;20294;-46
2022/04/06 12:44:26;;;;;;;5.60;4.25;;;10.40;99.90;;;;;;4969071;28;20230;-46
2022/04/06 12:46:53;;;;;;;5.60;4.43;;;10.40;99.90;;;;;;4984093;28;20290;-47
2022/04/06 12:49:29;;;;;;;7.03;4.73;;;10.40;99.90;;;;;;4978326;28;20634;-46
2022/04/06 12:52:13;;;;;;;9.60;5.30;;;10.40;99.90;;;;;;4973794;28;20473;-47
2022/04/06 12:54:42;;;;;;;5.10;4.27;;;10.40;99.90;;;;;;4984500;28;20227;-47
2022/04/06 12:57:13;;;;;;;7.97;4.97;;;10.40;99.90;;;;;;4985679;28;20217;-47
2022/04/06 12:59:42;;;;;;;5.67;4.43;;;10.50;99.90;;;;;;4983981;28;20643;-47
2022/04/06 13:02:24;;;;;;;6.23;5.10;;;10.40;99.90;;;;;;4962349;28;20216;-47
2022/04/06 13:04:52;;;;;;;9.53;5.13;;;10.50;99.90;;;;;;4994829;28;20242;-47